sensor_id;sensor_type;location;lat;lon;timestamp;P1;durP1;ratioP1;P2;durP2;ratioP2
13309;SDS011;6723;48.256;16.402;2022-08-11T00:00:36;4.47;;;3.43;;
13309;SDS011;6723;48.256;16.402;2022-08-11T00:03:07;5.23;;;3.27;;
13309;SDS011;6723;48.256;16.402;2022-08-11T00:05:48;4.47;;;3.60;;
13309;SDS011;6723;48.256;16.402;2022-08-11T00:08:24;3.60;;;3.30;;
13309;SDS011;6723;48.256;16.402;2022-08-11T00:11:03;4.60;;;3.73;;
13309;SDS011;6723;48.256;16.402;2022-08-11T00:13:39;4.90;;;3.53;;
13309;SDS011;6723;48.256;16.402;2022-08-11T00:18:50;6.43;;;3.53;;
13309;SDS011;6723;48.256;16.402;2022-08-11T00:21:19;5.03;;;3.77;;
13309;SDS011;6723;48.256;16.402;2022-08-11T00:23:50;6.73;;;3.97;;
13309;SDS011;6723;48.256;16.402;2022-08-11T00:26:19;5.97;;;3.80;;
13309;SDS011;6723;48.256;16.402;2022-08-11T00:28:46;4.40;;;3.43;;
13309;SDS011;6723;48.256;16.402;2022-08-11T00:31:30;6.70;;;3.60;;
13309;SDS011;6723;48.256;16.402;2022-08-11T00:33:58;4.43;;;3.20;;
13309;SDS011;6723;48.256;16.402;2022-08-11T00:36:29;6.13;;;3.50;;
13309;SDS011;6723;48.256;16.402;2022-08-11T00:39:06;3.70;;;3.40;;
13309;SDS011;6723;48.256;16.402;2022-08-11T00:41:46;4.73;;;3.70;;
13309;SDS011;6723;48.256;16.402;2022-08-11T01:31:37;4.57;;;3.77;;
13309;SDS011;6723;48.256;16.402;2022-08-11T01:46:32;6.27;;;4.20;;
13309;SDS011;6723;48.256;16.402;2022-08-11T01:49:32;6.20;;;4.00;;
13309;SDS011;6723;48.256;16.402;2022-08-11T01:52:18;4.40;;;4.00;;
13309;SDS011;6723;48.256;16.402;2022-08-11T01:55:11;5.17;;;3.50;;
13309;SDS011;6723;48.256;16.402;2022-08-11T01:58:08;4.00;;;3.60;;
13309;SDS011;6723;48.256;16.402;2022-08-11T02:00:57;4.87;;;3.57;;
13309;SDS011;6723;48.256;16.402;2022-08-11T02:09:24;4.50;;;3.90;;
13309;SDS011;6723;48.256;16.402;2022-08-11T02:20:41;4.10;;;3.70;;
13309;SDS011;6723;48.256;16.402;2022-08-11T02:26:19;5.80;;;3.70;;
13309;SDS011;6723;48.256;16.402;2022-08-11T02:35:13;5.63;;;3.70;;
13309;SDS011;6723;48.256;16.402;2022-08-11T02:37:52;3.93;;;3.57;;
13309;SDS011;6723;48.256;16.402;2022-08-11T02:44:08;4.67;;;3.93;;
13309;SDS011;6723;48.256;16.402;2022-08-11T02:46:57;4.70;;;4.13;;
13309;SDS011;6723;48.256;16.402;2022-08-11T02:50:00;5.33;;;3.70;;
13309;SDS011;6723;48.256;16.402;2022-08-11T02:58:25;4.57;;;4.10;;
13309;SDS011;6723;48.256;16.402;2022-08-11T03:01:35;7.33;;;3.63;;
13309;SDS011;6723;48.256;16.402;2022-08-11T03:04:11;7.00;;;4.20;;
13309;SDS011;6723;48.256;16.402;2022-08-11T03:07:03;5.30;;;4.13;;
13309;SDS011;6723;48.256;16.402;2022-08-11T03:09:46;4.20;;;3.80;;
13309;SDS011;6723;48.256;16.402;2022-08-11T03:12:20;5.50;;;4.47;;
13309;SDS011;6723;48.256;16.402;2022-08-11T03:15:18;6.40;;;4.40;;
13309;SDS011;6723;48.256;16.402;2022-08-11T03:18:15;5.87;;;4.27;;
13309;SDS011;6723;48.256;16.402;2022-08-11T03:31:45;4.40;;;4.00;;
13309;SDS011;6723;48.256;16.402;2022-08-11T03:34:21;8.13;;;4.50;;
13309;SDS011;6723;48.256;16.402;2022-08-11T03:37:12;4.80;;;4.00;;
13309;SDS011;6723;48.256;16.402;2022-08-11T03:43:02;5.87;;;4.20;;
13309;SDS011;6723;48.256;16.402;2022-08-11T03:48:21;9.10;;;4.73;;
13309;SDS011;6723;48.256;16.402;2022-08-11T04:32:38;5.97;;;4.53;;
13309;SDS011;6723;48.256;16.402;2022-08-11T04:41:11;5.50;;;4.10;;
13309;SDS011;6723;48.256;16.402;2022-08-11T04:56:17;6.33;;;4.23;;
13309;SDS011;6723;48.256;16.402;2022-08-11T05:17:15;7.80;;;4.47;;
13309;SDS011;6723;48.256;16.402;2022-08-11T05:20:08;5.57;;;4.40;;
13309;SDS011;6723;48.256;16.402;2022-08-11T05:22:54;8.83;;;4.77;;
13309;SDS011;6723;48.256;16.402;2022-08-11T05:25:44;6.73;;;4.30;;
13309;SDS011;6723;48.256;16.402;2022-08-11T05:28:36;5.47;;;3.80;;
13309;SDS011;6723;48.256;16.402;2022-08-11T05:31:28;5.47;;;4.20;;
13309;SDS011;6723;48.256;16.402;2022-08-11T05:34:27;8.77;;;4.20;;
13309;SDS011;6723;48.256;16.402;2022-08-11T05:37:49;5.97;;;3.90;;
13309;SDS011;6723;48.256;16.402;2022-08-11T05:40:29;6.73;;;4.13;;
13309;SDS011;6723;48.256;16.402;2022-08-11T05:43:15;5.43;;;4.00;;
13309;SDS011;6723;48.256;16.402;2022-08-11T05:46:01;5.00;;;3.97;;
13309;SDS011;6723;48.256;16.402;2022-08-11T05:48:48;4.33;;;3.67;;
13309;SDS011;6723;48.256;16.402;2022-08-11T05:51:33;4.00;;;3.60;;
13309;SDS011;6723;48.256;16.402;2022-08-11T05:54:19;5.57;;;3.87;;
13309;SDS011;6723;48.256;16.402;2022-08-11T05:57:04;7.83;;;3.60;;
13309;SDS011;6723;48.256;16.402;2022-08-11T05:59:31;7.63;;;4.13;;
13309;SDS011;6723;48.256;16.402;2022-08-11T06:02:01;5.40;;;3.83;;
13309;SDS011;6723;48.256;16.402;2022-08-11T06:04:28;7.13;;;4.20;;
13309;SDS011;6723;48.256;16.402;2022-08-11T06:06:56;6.63;;;4.33;;
13309;SDS011;6723;48.256;16.402;2022-08-11T06:09:27;7.83;;;3.60;;
13309;SDS011;6723;48.256;16.402;2022-08-11T06:11:57;6.37;;;3.70;;
13309;SDS011;6723;48.256;16.402;2022-08-11T06:14:40;6.50;;;3.63;;
13309;SDS011;6723;48.256;16.402;2022-08-11T06:17:08;6.73;;;3.47;;
13309;SDS011;6723;48.256;16.402;2022-08-11T06:19:41;4.43;;;3.63;;
13309;SDS011;6723;48.256;16.402;2022-08-11T06:22:11;7.20;;;3.60;;
13309;SDS011;6723;48.256;16.402;2022-08-11T06:24:49;5.43;;;3.43;;
13309;SDS011;6723;48.256;16.402;2022-08-11T06:27:20;6.03;;;3.80;;
13309;SDS011;6723;48.256;16.402;2022-08-11T06:29:50;5.23;;;3.50;;
13309;SDS011;6723;48.256;16.402;2022-08-11T06:32:19;4.33;;;3.43;;
13309;SDS011;6723;48.256;16.402;2022-08-11T06:34:57;6.60;;;3.70;;
13309;SDS011;6723;48.256;16.402;2022-08-11T06:37:45;9.63;;;6.93;;
13309;SDS011;6723;48.256;16.402;2022-08-11T06:40:41;8.83;;;5.70;;
13309;SDS011;6723;48.256;16.402;2022-08-11T06:46:30;5.73;;;3.73;;
13309;SDS011;6723;48.256;16.402;2022-08-11T06:49:01;6.47;;;3.30;;
13309;SDS011;6723;48.256;16.402;2022-08-11T06:51:28;6.30;;;3.73;;
13309;SDS011;6723;48.256;16.402;2022-08-11T06:53:56;5.67;;;3.50;;
13309;SDS011;6723;48.256;16.402;2022-08-11T06:56:28;4.33;;;3.43;;
13309;SDS011;6723;48.256;16.402;2022-08-11T06:59:14;4.83;;;3.20;;
13309;SDS011;6723;48.256;16.402;2022-08-11T07:05:09;5.93;;;3.63;;
13309;SDS011;6723;48.256;16.402;2022-08-11T07:14:16;6.20;;;3.00;;
13309;SDS011;6723;48.256;16.402;2022-08-11T07:17:10;3.77;;;3.10;;
13309;SDS011;6723;48.256;16.402;2022-08-11T07:19:42;4.47;;;3.03;;
13309;SDS011;6723;48.256;16.402;2022-08-11T07:22:30;4.10;;;2.63;;
13309;SDS011;6723;48.256;16.402;2022-08-11T07:25:15;3.35;;;2.30;;
13309;SDS011;6723;48.256;16.402;2022-08-11T07:28:02;2.75;;;2.00;;
13309;SDS011;6723;48.256;16.402;2022-08-11T07:30:57;2.92;;;2.15;;
13309;SDS011;6723;48.256;16.402;2022-08-11T07:33:44;4.10;;;1.90;;
13309;SDS011;6723;48.256;16.402;2022-08-11T07:36:16;4.80;;;2.15;;
13309;SDS011;6723;48.256;16.402;2022-08-11T07:38:49;2.85;;;1.83;;
13309;SDS011;6723;48.256;16.402;2022-08-11T07:41:19;4.78;;;2.03;;
13309;SDS011;6723;48.256;16.402;2022-08-11T07:43:49;2.75;;;1.60;;
13309;SDS011;6723;48.256;16.402;2022-08-11T07:46:19;2.95;;;1.50;;
13309;SDS011;6723;48.256;16.402;2022-08-11T07:49:06;3.83;;;1.38;;
13309;SDS011;6723;48.256;16.402;2022-08-11T07:51:53;5.35;;;1.77;;
13309;SDS011;6723;48.256;16.402;2022-08-11T07:54:38;7.22;;;1.40;;
13309;SDS011;6723;48.256;16.402;2022-08-11T07:57:08;2.65;;;1.50;;
13309;SDS011;6723;48.256;16.402;2022-08-11T07:59:56;3.15;;;1.50;;
13309;SDS011;6723;48.256;16.402;2022-08-11T08:02:41;2.25;;;1.33;;
13309;SDS011;6723;48.256;16.402;2022-08-11T08:05:26;2.55;;;1.30;;
13309;SDS011;6723;48.256;16.402;2022-08-11T08:08:12;3.42;;;1.50;;
13309;SDS011;6723;48.256;16.402;2022-08-11T08:10:58;2.50;;;1.50;;
13309;SDS011;6723;48.256;16.402;2022-08-11T08:13:44;3.75;;;1.80;;
13309;SDS011;6723;48.256;16.402;2022-08-11T08:16:29;3.00;;;1.58;;
13309;SDS011;6723;48.256;16.402;2022-08-11T08:19:14;2.78;;;1.45;;
13309;SDS011;6723;48.256;16.402;2022-08-11T08:21:41;2.53;;;1.20;;
13309;SDS011;6723;48.256;16.402;2022-08-11T08:24:09;3.33;;;1.60;;
13309;SDS011;6723;48.256;16.402;2022-08-11T08:26:36;2.80;;;1.63;;
13309;SDS011;6723;48.256;16.402;2022-08-11T08:29:34;3.95;;;1.38;;
13309;SDS011;6723;48.256;16.402;2022-08-11T08:32:20;1.75;;;1.40;;
13309;SDS011;6723;48.256;16.402;2022-08-11T08:34:50;7.35;;;1.50;;
13309;SDS011;6723;48.256;16.402;2022-08-11T08:37:19;1.98;;;1.20;;
13309;SDS011;6723;48.256;16.402;2022-08-11T08:39:48;2.17;;;1.30;;
13309;SDS011;6723;48.256;16.402;2022-08-11T08:42:24;5.13;;;1.42;;
13309;SDS011;6723;48.256;16.402;2022-08-11T08:44:58;3.78;;;1.60;;
13309;SDS011;6723;48.256;16.402;2022-08-11T08:47:29;1.70;;;1.40;;
13309;SDS011;6723;48.256;16.402;2022-08-11T08:50:00;2.33;;;1.17;;
13309;SDS011;6723;48.256;16.402;2022-08-11T08:52:32;1.45;;;1.30;;
13309;SDS011;6723;48.256;16.402;2022-08-11T08:55:05;3.58;;;1.65;;
13309;SDS011;6723;48.256;16.402;2022-08-11T08:57:34;4.75;;;1.30;;
13309;SDS011;6723;48.256;16.402;2022-08-11T09:00:04;5.05;;;1.42;;
13309;SDS011;6723;48.256;16.402;2022-08-11T09:02:32;3.58;;;1.40;;
13309;SDS011;6723;48.256;16.402;2022-08-11T09:04:58;1.42;;;1.02;;
13309;SDS011;6723;48.256;16.402;2022-08-11T09:07:25;1.95;;;1.05;;
13309;SDS011;6723;48.256;16.402;2022-08-11T09:09:53;1.15;;;0.85;;
13309;SDS011;6723;48.256;16.402;2022-08-11T09:12:25;4.22;;;1.20;;
13309;SDS011;6723;48.256;16.402;2022-08-11T09:14:53;1.90;;;1.00;;
13309;SDS011;6723;48.256;16.402;2022-08-11T09:17:32;1.73;;;0.90;;
13309;SDS011;6723;48.256;16.402;2022-08-11T09:20:04;3.25;;;1.00;;
13309;SDS011;6723;48.256;16.402;2022-08-11T09:22:37;1.77;;;1.20;;
13309;SDS011;6723;48.256;16.402;2022-08-11T09:25:30;6.18;;;1.58;;
13309;SDS011;6723;48.256;16.402;2022-08-11T09:28:16;3.80;;;1.52;;
13309;SDS011;6723;48.256;16.402;2022-08-11T09:30:43;4.28;;;1.60;;
13309;SDS011;6723;48.256;16.402;2022-08-11T09:33:13;3.70;;;1.20;;
13309;SDS011;6723;48.256;16.402;2022-08-11T09:35:41;2.42;;;1.23;;
13309;SDS011;6723;48.256;16.402;2022-08-11T09:38:08;2.55;;;1.23;;
13309;SDS011;6723;48.256;16.402;2022-08-11T09:40:56;3.67;;;1.17;;
13309;SDS011;6723;48.256;16.402;2022-08-11T09:43:24;1.83;;;1.48;;
13309;SDS011;6723;48.256;16.402;2022-08-11T09:46:09;1.80;;;1.40;;
13309;SDS011;6723;48.256;16.402;2022-08-11T09:48:41;5.72;;;1.45;;
13309;SDS011;6723;48.256;16.402;2022-08-11T09:51:09;2.88;;;1.48;;
13309;SDS011;6723;48.256;16.402;2022-08-11T09:53:41;2.65;;;2.17;;
13309;SDS011;6723;48.256;16.402;2022-08-11T09:56:12;3.25;;;2.00;;
13309;SDS011;6723;48.256;16.402;2022-08-11T09:59:00;4.18;;;2.22;;
13309;SDS011;6723;48.256;16.402;2022-08-11T10:01:37;4.63;;;2.88;;
13309;SDS011;6723;48.256;16.402;2022-08-11T10:10:17;4.05;;;2.03;;
13309;SDS011;6723;48.256;16.402;2022-08-11T10:12:51;3.13;;;2.70;;
13309;SDS011;6723;48.256;16.402;2022-08-11T10:15:24;3.20;;;2.40;;
13309;SDS011;6723;48.256;16.402;2022-08-11T10:18:27;2.35;;;1.98;;
13309;SDS011;6723;48.256;16.402;2022-08-11T10:23:52;3.17;;;2.42;;
13309;SDS011;6723;48.256;16.402;2022-08-11T10:26:41;3.15;;;2.10;;
13309;SDS011;6723;48.256;16.402;2022-08-11T10:29:31;2.42;;;1.80;;
13309;SDS011;6723;48.256;16.402;2022-08-11T10:32:23;3.70;;;2.40;;
13309;SDS011;6723;48.256;16.402;2022-08-11T10:35:10;1.52;;;1.40;;
13309;SDS011;6723;48.256;16.402;2022-08-11T10:37:38;3.95;;;2.05;;
13309;SDS011;6723;48.256;16.402;2022-08-11T10:40:07;4.15;;;1.95;;
13309;SDS011;6723;48.256;16.402;2022-08-11T10:42:35;4.07;;;1.90;;
13309;SDS011;6723;48.256;16.402;2022-08-11T10:45:22;3.83;;;1.80;;
13309;SDS011;6723;48.256;16.402;2022-08-11T10:48:07;5.60;;;1.88;;
13309;SDS011;6723;48.256;16.402;2022-08-11T10:50:34;3.00;;;1.80;;
13309;SDS011;6723;48.256;16.402;2022-08-11T10:53:20;11.85;;;2.05;;
13309;SDS011;6723;48.256;16.402;2022-08-11T10:56:05;3.13;;;1.80;;
13309;SDS011;6723;48.256;16.402;2022-08-11T10:58:51;2.05;;;1.63;;
13309;SDS011;6723;48.256;16.402;2022-08-11T11:04:03;3.22;;;1.40;;
13309;SDS011;6723;48.256;16.402;2022-08-11T11:09:15;2.55;;;1.75;;
13309;SDS011;6723;48.256;16.402;2022-08-11T11:11:48;4.30;;;1.70;;
13309;SDS011;6723;48.256;16.402;2022-08-11T11:14:39;3.63;;;1.50;;
13309;SDS011;6723;48.256;16.402;2022-08-11T11:17:37;3.90;;;1.50;;
13309;SDS011;6723;48.256;16.402;2022-08-11T11:22:53;3.08;;;2.65;;
13309;SDS011;6723;48.256;16.402;2022-08-11T11:25:24;3.15;;;2.15;;
13309;SDS011;6723;48.256;16.402;2022-08-11T11:38:37;2.00;;;1.58;;
13309;SDS011;6723;48.256;16.402;2022-08-11T11:41:05;3.78;;;1.50;;
13309;SDS011;6723;48.256;16.402;2022-08-11T11:43:54;1.30;;;1.10;;
13309;SDS011;6723;48.256;16.402;2022-08-11T11:46:22;4.10;;;1.52;;
13309;SDS011;6723;48.256;16.402;2022-08-11T11:48:52;4.85;;;1.35;;
13309;SDS011;6723;48.256;16.402;2022-08-11T11:51:20;1.45;;;1.20;;
13309;SDS011;6723;48.256;16.402;2022-08-11T11:53:47;2.63;;;1.52;;
13309;SDS011;6723;48.256;16.402;2022-08-11T11:56:14;3.45;;;1.60;;
13309;SDS011;6723;48.256;16.402;2022-08-11T11:58:40;3.20;;;1.83;;
13309;SDS011;6723;48.256;16.402;2022-08-11T12:01:25;1.85;;;1.73;;
13309;SDS011;6723;48.256;16.402;2022-08-11T12:03:55;5.18;;;1.50;;
13309;SDS011;6723;48.256;16.402;2022-08-11T12:06:23;4.40;;;1.70;;
13309;SDS011;6723;48.256;16.402;2022-08-11T12:08:52;4.45;;;1.33;;
13309;SDS011;6723;48.256;16.402;2022-08-11T12:11:20;2.55;;;1.30;;
13309;SDS011;6723;48.256;16.402;2022-08-11T12:14:06;3.63;;;1.27;;
13309;SDS011;6723;48.256;16.402;2022-08-11T12:16:34;1.70;;;1.30;;
13309;SDS011;6723;48.256;16.402;2022-08-11T12:19:09;5.60;;;1.30;;
13309;SDS011;6723;48.256;16.402;2022-08-11T12:21:37;2.58;;;1.30;;
13309;SDS011;6723;48.256;16.402;2022-08-11T12:24:24;3.20;;;2.40;;
13309;SDS011;6723;48.256;16.402;2022-08-11T12:27:10;6.30;;;1.70;;
13309;SDS011;6723;48.256;16.402;2022-08-11T12:29:47;3.17;;;1.30;;
13309;SDS011;6723;48.256;16.402;2022-08-11T12:32:25;1.75;;;1.35;;
13309;SDS011;6723;48.256;16.402;2022-08-11T12:34:54;1.40;;;1.20;;
13309;SDS011;6723;48.256;16.402;2022-08-11T12:37:23;2.10;;;1.30;;
13309;SDS011;6723;48.256;16.402;2022-08-11T12:39:56;2.92;;;1.33;;
13309;SDS011;6723;48.256;16.402;2022-08-11T12:42:46;2.22;;;2.03;;
13309;SDS011;6723;48.256;16.402;2022-08-11T12:45:31;4.28;;;2.65;;
13309;SDS011;6723;48.256;16.402;2022-08-11T12:48:03;4.05;;;2.00;;
13309;SDS011;6723;48.256;16.402;2022-08-11T12:50:49;2.90;;;1.92;;
13309;SDS011;6723;48.256;16.402;2022-08-11T12:53:37;3.00;;;2.00;;
13309;SDS011;6723;48.256;16.402;2022-08-11T12:56:09;1.98;;;1.67;;
13309;SDS011;6723;48.256;16.402;2022-08-11T12:58:54;1.55;;;1.45;;
13309;SDS011;6723;48.256;16.402;2022-08-11T13:01:40;4.03;;;1.60;;
13309;SDS011;6723;48.256;16.402;2022-08-11T13:04:26;5.20;;;1.65;;
13309;SDS011;6723;48.256;16.402;2022-08-11T13:07:13;2.45;;;1.70;;
13309;SDS011;6723;48.256;16.402;2022-08-11T13:09:39;7.22;;;1.60;;
13309;SDS011;6723;48.256;16.402;2022-08-11T13:12:07;2.83;;;1.50;;
13309;SDS011;6723;48.256;16.402;2022-08-11T13:14:51;5.45;;;1.42;;
13309;SDS011;6723;48.256;16.402;2022-08-11T13:17:19;2.75;;;1.50;;
13309;SDS011;6723;48.256;16.402;2022-08-11T13:19:47;2.50;;;1.67;;
13309;SDS011;6723;48.256;16.402;2022-08-11T13:22:15;2.13;;;1.60;;
13309;SDS011;6723;48.256;16.402;2022-08-11T13:24:43;4.70;;;1.50;;
13309;SDS011;6723;48.256;16.402;2022-08-11T13:27:10;2.47;;;1.40;;
13309;SDS011;6723;48.256;16.402;2022-08-11T13:29:40;4.22;;;1.70;;
13309;SDS011;6723;48.256;16.402;2022-08-11T13:32:10;1.90;;;1.63;;
13309;SDS011;6723;48.256;16.402;2022-08-11T13:34:38;1.73;;;1.50;;
13309;SDS011;6723;48.256;16.402;2022-08-11T13:37:08;2.53;;;2.00;;
13309;SDS011;6723;48.256;16.402;2022-08-11T13:39:37;4.43;;;1.93;;
13309;SDS011;6723;48.256;16.402;2022-08-11T13:42:12;3.40;;;2.27;;
13309;SDS011;6723;48.256;16.402;2022-08-11T13:44:40;2.57;;;2.00;;
13309;SDS011;6723;48.256;16.402;2022-08-11T13:47:07;2.30;;;1.90;;
13309;SDS011;6723;48.256;16.402;2022-08-11T13:49:38;2.77;;;1.73;;
13309;SDS011;6723;48.256;16.402;2022-08-11T13:52:07;4.80;;;2.17;;
13309;SDS011;6723;48.256;16.402;2022-08-11T13:54:40;5.67;;;2.10;;
13309;SDS011;6723;48.256;16.402;2022-08-11T13:57:07;2.10;;;1.90;;
13309;SDS011;6723;48.256;16.402;2022-08-11T13:59:36;3.53;;;2.10;;
13309;SDS011;6723;48.256;16.402;2022-08-11T14:02:07;5.47;;;2.00;;
13309;SDS011;6723;48.256;16.402;2022-08-11T14:07:10;5.33;;;4.27;;
13309;SDS011;6723;48.256;16.402;2022-08-11T14:09:42;3.33;;;2.57;;
13309;SDS011;6723;48.256;16.402;2022-08-11T14:12:19;5.43;;;2.23;;
13309;SDS011;6723;48.256;16.402;2022-08-11T14:15:17;8.57;;;2.60;;
13309;SDS011;6723;48.256;16.402;2022-08-11T14:17:57;3.50;;;2.03;;
13309;SDS011;6723;48.256;16.402;2022-08-11T14:20:27;6.17;;;2.10;;
13309;SDS011;6723;48.256;16.402;2022-08-11T14:23:14;4.00;;;1.87;;
13309;SDS011;6723;48.256;16.402;2022-08-11T14:25:42;3.47;;;2.03;;
13309;SDS011;6723;48.256;16.402;2022-08-11T14:28:29;9.20;;;2.70;;
13309;SDS011;6723;48.256;16.402;2022-08-11T14:30:58;2.47;;;2.13;;
13309;SDS011;6723;48.256;16.402;2022-08-11T14:33:25;6.30;;;2.00;;
13309;SDS011;6723;48.256;16.402;2022-08-11T14:35:52;4.67;;;2.17;;
13309;SDS011;6723;48.256;16.402;2022-08-11T14:38:18;3.73;;;2.90;;
13309;SDS011;6723;48.256;16.402;2022-08-11T14:40:45;4.83;;;3.40;;
13309;SDS011;6723;48.256;16.402;2022-08-11T14:43:31;4.13;;;2.60;;
13309;SDS011;6723;48.256;16.402;2022-08-11T14:46:17;5.83;;;2.10;;
13309;SDS011;6723;48.256;16.402;2022-08-11T14:49:01;6.77;;;2.30;;
13309;SDS011;6723;48.256;16.402;2022-08-11T14:51:28;6.33;;;2.27;;
13309;SDS011;6723;48.256;16.402;2022-08-11T14:53:54;5.37;;;2.87;;
13309;SDS011;6723;48.256;16.402;2022-08-11T14:56:41;9.17;;;2.90;;
13309;SDS011;6723;48.256;16.402;2022-08-11T14:59:09;5.10;;;2.80;;
13309;SDS011;6723;48.256;16.402;2022-08-11T15:01:36;4.37;;;2.60;;
13309;SDS011;6723;48.256;16.402;2022-08-11T15:04:21;4.30;;;2.53;;
13309;SDS011;6723;48.256;16.402;2022-08-11T15:06:48;5.97;;;3.13;;
13309;SDS011;6723;48.256;16.402;2022-08-11T15:09:16;4.47;;;3.00;;
13309;SDS011;6723;48.256;16.402;2022-08-11T15:11:42;8.27;;;3.57;;
13309;SDS011;6723;48.256;16.402;2022-08-11T15:14:27;5.33;;;3.67;;
13309;SDS011;6723;48.256;16.402;2022-08-11T15:17:11;6.57;;;3.10;;
13309;SDS011;6723;48.256;16.402;2022-08-11T15:19:39;4.47;;;2.70;;
13309;SDS011;6723;48.256;16.402;2022-08-11T15:22:46;3.13;;;2.20;;
13309;SDS011;6723;48.256;16.402;2022-08-11T15:25:31;4.97;;;2.40;;
13309;SDS011;6723;48.256;16.402;2022-08-11T15:27:59;3.80;;;2.80;;
13309;SDS011;6723;48.256;16.402;2022-08-11T15:30:46;5.37;;;3.13;;
13309;SDS011;6723;48.256;16.402;2022-08-11T15:33:33;5.07;;;3.13;;
13309;SDS011;6723;48.256;16.402;2022-08-11T15:36:20;4.20;;;2.70;;
13309;SDS011;6723;48.256;16.402;2022-08-11T15:39:08;3.20;;;2.33;;
13309;SDS011;6723;48.256;16.402;2022-08-11T15:41:44;3.33;;;2.60;;
13309;SDS011;6723;48.256;16.402;2022-08-11T15:44:51;4.40;;;2.23;;
13309;SDS011;6723;48.256;16.402;2022-08-11T15:48:02;4.50;;;2.50;;
13309;SDS011;6723;48.256;16.402;2022-08-11T15:50:32;7.53;;;2.70;;
13309;SDS011;6723;48.256;16.402;2022-08-11T15:53:11;2.40;;;2.20;;
13309;SDS011;6723;48.256;16.402;2022-08-11T15:55:44;6.03;;;2.40;;
13309;SDS011;6723;48.256;16.402;2022-08-11T15:58:13;6.63;;;2.17;;
13309;SDS011;6723;48.256;16.402;2022-08-11T16:00:58;6.20;;;2.50;;
13309;SDS011;6723;48.256;16.402;2022-08-11T16:03:46;2.87;;;2.20;;
13309;SDS011;6723;48.256;16.402;2022-08-11T16:06:59;5.67;;;2.30;;
13309;SDS011;6723;48.256;16.402;2022-08-11T16:09:47;6.20;;;2.17;;
13309;SDS011;6723;48.256;16.402;2022-08-11T16:12:28;6.40;;;2.70;;
13309;SDS011;6723;48.256;16.402;2022-08-11T16:15:03;7.87;;;3.17;;
13309;SDS011;6723;48.256;16.402;2022-08-11T16:17:59;4.93;;;2.70;;
13309;SDS011;6723;48.256;16.402;2022-08-11T16:20:29;7.17;;;3.27;;
13309;SDS011;6723;48.256;16.402;2022-08-11T16:23:01;5.73;;;3.50;;
13309;SDS011;6723;48.256;16.402;2022-08-11T16:25:32;4.87;;;3.10;;
13309;SDS011;6723;48.256;16.402;2022-08-11T16:28:01;4.90;;;2.67;;
13309;SDS011;6723;48.256;16.402;2022-08-11T16:30:35;3.83;;;2.60;;
13309;SDS011;6723;48.256;16.402;2022-08-11T16:33:04;4.13;;;2.47;;
13309;SDS011;6723;48.256;16.402;2022-08-11T16:35:33;4.17;;;2.80;;
13309;SDS011;6723;48.256;16.402;2022-08-11T16:38:20;3.20;;;2.90;;
13309;SDS011;6723;48.256;16.402;2022-08-11T16:41:04;5.57;;;2.90;;
13309;SDS011;6723;48.256;16.402;2022-08-11T16:43:45;5.43;;;2.93;;
13309;SDS011;6723;48.256;16.402;2022-08-11T16:46:32;5.10;;;2.47;;
13309;SDS011;6723;48.256;16.402;2022-08-11T16:49:34;4.37;;;2.47;;
13309;SDS011;6723;48.256;16.402;2022-08-11T16:52:04;2.33;;;2.13;;
13309;SDS011;6723;48.256;16.402;2022-08-11T16:54:35;4.70;;;2.67;;
13309;SDS011;6723;48.256;16.402;2022-08-11T16:57:07;5.37;;;2.73;;
13309;SDS011;6723;48.256;16.402;2022-08-11T16:59:57;5.87;;;2.53;;
13309;SDS011;6723;48.256;16.402;2022-08-11T17:02:31;8.13;;;2.73;;
13309;SDS011;6723;48.256;16.402;2022-08-11T17:05:21;5.27;;;2.47;;
13309;SDS011;6723;48.256;16.402;2022-08-11T17:08:08;3.70;;;2.40;;
13309;SDS011;6723;48.256;16.402;2022-08-11T17:10:57;5.37;;;2.87;;
13309;SDS011;6723;48.256;16.402;2022-08-11T17:16:19;5.13;;;2.63;;
13309;SDS011;6723;48.256;16.402;2022-08-11T17:21:51;3.37;;;1.97;;
13309;SDS011;6723;48.256;16.402;2022-08-11T17:24:37;3.40;;;2.43;;
13309;SDS011;6723;48.256;16.402;2022-08-11T17:27:07;4.60;;;2.37;;
13309;SDS011;6723;48.256;16.402;2022-08-11T17:29:39;2.90;;;2.10;;
13309;SDS011;6723;48.256;16.402;2022-08-11T17:32:29;6.63;;;4.03;;
13309;SDS011;6723;48.256;16.402;2022-08-11T17:35:38;6.57;;;4.07;;
13309;SDS011;6723;48.256;16.402;2022-08-11T17:38:06;7.53;;;3.90;;
13309;SDS011;6723;48.256;16.402;2022-08-11T17:40:36;6.53;;;3.60;;
13309;SDS011;6723;48.256;16.402;2022-08-11T17:43:24;5.67;;;2.67;;
13309;SDS011;6723;48.256;16.402;2022-08-11T17:46:10;5.83;;;2.83;;
13309;SDS011;6723;48.256;16.402;2022-08-11T17:48:54;4.67;;;2.90;;
13309;SDS011;6723;48.256;16.402;2022-08-11T17:51:21;5.50;;;2.80;;
13309;SDS011;6723;48.256;16.402;2022-08-11T17:54:06;3.77;;;2.63;;
13309;SDS011;6723;48.256;16.402;2022-08-11T17:56:53;5.97;;;2.60;;
13309;SDS011;6723;48.256;16.402;2022-08-11T17:59:39;5.60;;;2.60;;
13309;SDS011;6723;48.256;16.402;2022-08-11T18:02:17;3.70;;;2.77;;
13309;SDS011;6723;48.256;16.402;2022-08-11T18:05:04;4.93;;;2.53;;
13309;SDS011;6723;48.256;16.402;2022-08-11T18:07:30;2.57;;;2.30;;
13309;SDS011;6723;48.256;16.402;2022-08-11T18:10:16;4.17;;;2.20;;
13309;SDS011;6723;48.256;16.402;2022-08-11T18:13:01;3.73;;;2.70;;
13309;SDS011;6723;48.256;16.402;2022-08-11T18:15:47;3.40;;;2.37;;
13309;SDS011;6723;48.256;16.402;2022-08-11T18:18:33;4.50;;;2.87;;
13309;SDS011;6723;48.256;16.402;2022-08-11T18:21:17;3.27;;;2.60;;
13309;SDS011;6723;48.256;16.402;2022-08-11T18:24:05;8.13;;;4.10;;
13309;SDS011;6723;48.256;16.402;2022-08-11T18:26:59;10.67;;;5.27;;
13309;SDS011;6723;48.256;16.402;2022-08-11T18:29:47;8.53;;;5.23;;
13309;SDS011;6723;48.256;16.402;2022-08-11T18:32:35;7.03;;;4.10;;
13309;SDS011;6723;48.256;16.402;2022-08-11T18:35:20;5.70;;;3.90;;
13309;SDS011;6723;48.256;16.402;2022-08-11T18:38:12;7.07;;;5.07;;
13309;SDS011;6723;48.256;16.402;2022-08-11T18:40:58;6.83;;;4.27;;
13309;SDS011;6723;48.256;16.402;2022-08-11T18:43:45;7.43;;;4.00;;
13309;SDS011;6723;48.256;16.402;2022-08-11T18:46:32;4.73;;;3.07;;
13309;SDS011;6723;48.256;16.402;2022-08-11T18:49:20;5.40;;;3.17;;
13309;SDS011;6723;48.256;16.402;2022-08-11T18:52:07;6.53;;;2.97;;
13309;SDS011;6723;48.256;16.402;2022-08-11T18:54:54;6.40;;;3.03;;
13309;SDS011;6723;48.256;16.402;2022-08-11T18:57:41;4.97;;;3.00;;
13309;SDS011;6723;48.256;16.402;2022-08-11T19:00:30;3.37;;;2.80;;
13309;SDS011;6723;48.256;16.402;2022-08-11T19:03:15;4.77;;;2.60;;
13309;SDS011;6723;48.256;16.402;2022-08-11T19:06:03;5.73;;;2.70;;
13309;SDS011;6723;48.256;16.402;2022-08-11T19:08:56;4.83;;;2.83;;
13309;SDS011;6723;48.256;16.402;2022-08-11T19:11:44;5.03;;;2.93;;
13309;SDS011;6723;48.256;16.402;2022-08-11T19:14:31;5.50;;;3.30;;
13309;SDS011;6723;48.256;16.402;2022-08-11T19:17:29;12.50;;;4.00;;
13309;SDS011;6723;48.256;16.402;2022-08-11T19:20:22;6.03;;;3.30;;
13309;SDS011;6723;48.256;16.402;2022-08-11T19:23:09;3.87;;;3.00;;
13309;SDS011;6723;48.256;16.402;2022-08-11T19:25:55;5.63;;;3.30;;
13309;SDS011;6723;48.256;16.402;2022-08-11T19:28:41;3.87;;;2.83;;
13309;SDS011;6723;48.256;16.402;2022-08-11T19:31:29;4.17;;;2.70;;
13309;SDS011;6723;48.256;16.402;2022-08-11T19:34:16;5.67;;;3.10;;
13309;SDS011;6723;48.256;16.402;2022-08-11T19:37:03;4.17;;;3.10;;
13309;SDS011;6723;48.256;16.402;2022-08-11T19:39:50;4.07;;;2.73;;
13309;SDS011;6723;48.256;16.402;2022-08-11T19:42:40;7.23;;;2.70;;
13309;SDS011;6723;48.256;16.402;2022-08-11T19:48:16;4.67;;;3.07;;
13309;SDS011;6723;48.256;16.402;2022-08-11T19:51:02;4.60;;;3.03;;
13309;SDS011;6723;48.256;16.402;2022-08-11T19:53:47;4.33;;;2.77;;
13309;SDS011;6723;48.256;16.402;2022-08-11T19:56:32;4.67;;;2.90;;
13309;SDS011;6723;48.256;16.402;2022-08-11T19:59:17;4.47;;;2.90;;
13309;SDS011;6723;48.256;16.402;2022-08-11T20:02:02;3.13;;;2.50;;